Hauptseite
METAR-TAF:

METAR-TAF

Flughäfen :

Flughafen Phu Quoc

Phú Quốc, Vietnam

Breite: 10-10-18N, Länge: 103-59-28E, Höhe: 11 m

Beobachtung

Neuester Wetterbericht von vor 41 Minuten, um 00:00 UTC
Wind 1 kt aus Ost
Temperatur 26°C
Luftfeuchtigkeit 94%
Luftdruck 1010 hPa
Sichtweite 10 km oder mehr
Leicht bewölkt in der Höhe von 1500 ft

METAR: VVPQ 150000Z 09001KT 9999 FEW015 26/25 Q1010 NOSIG

Zeit: 07:41 (00:41 UTC)

Prognose

Neuester Wetterbericht von vor 1 Stunde und 41 Minuten, um 23:00 UTC
Gültige Prognose vom 15 um 00 UTC bis 15 um 24 UTC
Wind 8 kt aus Ost
Sichtweite 10 km oder mehr
Leicht bewölkt in der Höhe von 1500 ft

TAF: VVPQ 142300Z 1500/1524 08008KT 9999 FEW015

Wetterbeobachtungen und Prognosen von mehr als 4000 Flughäfen (METAR und TAF Bericht).

Die verfügbaren Stationen werden durch gelbe und rote Markierungen auf der Karte dargestellt.

Führen Sie die Maus auf sie, um den Namen der Station zu sehen.

Darauf klicken, um die Beobachtung von Wetterbeobachtungen und Prognosen zu sehen.

Um die Karte zu ändern : klicken Sie auf den grünen Tasten mit einem schwarzen Kreuz Zum Vergrößern, auf den grünen Button mit einem Gedankenstrich zu verkleinern, oder auf die grünen Pfeile für benachbarte Karten.


METAR-TAF: